createdAt,value
2023-02-15T00:00:30.215Z,1022.30
2023-02-15T00:01:30.179Z,1022.25
2023-02-15T00:02:30.161Z,1022.23
2023-02-15T00:03:30.147Z,1022.22
2023-02-15T00:04:30.141Z,1022.19
2023-02-15T00:05:30.126Z,1022.23
2023-02-15T00:06:30.116Z,1022.17
2023-02-15T00:07:30.120Z,1022.15
2023-02-15T00:08:30.101Z,1022.15
2023-02-15T00:09:30.091Z,1022.13
2023-02-15T00:10:30.082Z,1022.11
2023-02-15T00:11:30.062Z,1022.11
2023-02-15T00:12:30.054Z,1022.10
2023-02-15T00:13:30.039Z,1022.08
2023-02-15T00:14:30.029Z,1022.10
2023-02-15T00:15:30.031Z,1022.08
2023-02-15T00:16:30.017Z,1022.07
2023-02-15T00:17:30.015Z,1022.03
2023-02-15T00:18:29.989Z,1022.02
2023-02-15T00:19:29.976Z,1022.04
2023-02-15T00:20:29.972Z,1022.02
2023-02-15T00:21:29.963Z,1022.05
2023-02-15T00:22:29.969Z,1022.03
2023-02-15T00:23:29.933Z,1022.04
2023-02-15T00:24:29.925Z,1022.01
2023-02-15T00:25:29.912Z,1022.04
2023-02-15T00:26:29.898Z,1022.01
2023-02-15T00:27:29.900Z,1022.01
2023-02-15T00:28:29.874Z,1022.00
2023-02-15T00:29:29.868Z,1022.02
2023-02-15T00:30:29.954Z,1022.02
2023-02-15T00:31:29.884Z,1022.00
2023-02-15T00:32:29.841Z,1021.98
2023-02-15T00:33:29.830Z,1021.95
2023-02-15T00:34:29.822Z,1021.97
2023-02-15T00:35:29.801Z,1021.95
2023-02-15T00:36:29.795Z,1021.95
2023-02-15T00:37:29.787Z,1021.93
2023-02-15T00:38:29.781Z,1021.89
2023-02-15T00:39:29.767Z,1021.90
2023-02-15T00:40:29.750Z,1021.91
2023-02-15T00:41:29.738Z,1021.90
2023-02-15T00:42:29.730Z,1021.92
2023-02-15T00:43:29.720Z,1021.95
2023-02-15T00:44:29.708Z,1021.92
2023-02-15T00:45:29.696Z,1021.94
2023-02-15T00:46:29.687Z,1021.92
2023-02-15T00:47:29.679Z,1021.91
2023-02-15T00:48:29.673Z,1021.94
2023-02-15T00:49:29.654Z,1021.94
2023-02-15T00:50:29.647Z,1021.91
2023-02-15T00:51:29.641Z,1021.93
2023-02-15T00:52:29.628Z,1021.92
2023-02-15T00:53:29.621Z,1021.94
2023-02-15T00:54:29.606Z,1021.93
2023-02-15T00:55:29.585Z,1021.93
2023-02-15T00:56:29.585Z,1021.96
2023-02-15T00:57:29.580Z,1021.94
2023-02-15T00:58:29.558Z,1021.97
2023-02-15T00:59:29.544Z,1021.95
2023-02-15T01:00:29.542Z,1021.97
2023-02-15T01:01:29.563Z,1021.95
2023-02-15T01:02:29.518Z,1021.98
2023-02-15T01:03:29.515Z,1021.98
2023-02-15T01:04:29.567Z,1021.94
2023-02-15T01:05:29.543Z,1021.92
2023-02-15T01:06:29.476Z,1021.96
2023-02-15T01:07:29.473Z,1021.94
2023-02-15T01:08:29.446Z,1021.91
2023-02-15T01:09:29.440Z,1021.92
2023-02-15T01:10:29.434Z,1021.94
2023-02-15T01:11:29.426Z,1021.87
2023-02-15T01:12:29.412Z,1021.87
2023-02-15T01:13:29.404Z,1021.90
2023-02-15T01:14:29.387Z,1021.91
2023-02-15T01:15:29.381Z,1021.92
2023-02-15T01:16:29.482Z,1021.91
2023-02-15T01:17:29.360Z,1021.94
2023-02-15T01:18:29.345Z,1021.89
2023-02-15T01:19:29.343Z,1021.93
2023-02-15T01:20:29.333Z,1021.89
2023-02-15T01:21:29.328Z,1021.89
2023-02-15T01:22:29.314Z,1021.92
2023-02-15T01:23:29.299Z,1021.85
2023-02-15T01:24:29.287Z,1021.85
2023-02-15T01:25:29.269Z,1021.83
2023-02-15T01:26:29.258Z,1021.88
2023-02-15T01:27:29.240Z,1021.83
2023-02-15T01:28:29.240Z,1021.83
2023-02-15T01:29:29.224Z,1021.82
2023-02-15T01:30:29.226Z,1021.79
2023-02-15T01:31:29.277Z,1021.79
2023-02-15T01:32:29.200Z,1021.78
2023-02-15T01:33:29.185Z,1021.76
2023-02-15T01:34:29.179Z,1021.72
2023-02-15T01:35:29.166Z,1021.72
2023-02-15T01:36:29.159Z,1021.74
2023-02-15T01:37:29.145Z,1021.68
2023-02-15T01:38:29.134Z,1021.68
2023-02-15T01:39:29.120Z,1021.69
2023-02-15T01:40:29.114Z,1021.69
2023-02-15T01:41:29.099Z,1021.66
2023-02-15T01:42:29.080Z,1021.66
2023-02-15T01:43:29.077Z,1021.66
2023-02-15T01:44:29.080Z,1021.62
2023-02-15T01:45:29.073Z,1021.58
2023-02-15T01:46:29.114Z,1021.58
2023-02-15T01:47:29.063Z,1021.57
2023-02-15T01:48:29.043Z,1021.60
2023-02-15T01:49:29.012Z,1021.57
2023-02-15T01:50:28.993Z,1021.59
2023-02-15T01:51:28.980Z,1021.58
2023-02-15T01:52:28.968Z,1021.59
2023-02-15T01:53:28.965Z,1021.60
2023-02-15T01:54:28.980Z,1021.60
2023-02-15T01:55:28.942Z,1021.60
2023-02-15T01:56:28.925Z,1021.58
2023-02-15T01:57:28.916Z,1021.58
2023-02-15T01:58:28.906Z,1021.56
2023-02-15T01:59:28.907Z,1021.62
2023-02-15T02:00:28.880Z,1021.59
2023-02-15T02:01:28.886Z,1021.60
2023-02-15T02:02:28.918Z,1021.60
2023-02-15T02:03:28.845Z,1021.57
2023-02-15T02:04:28.840Z,1021.58
2023-02-15T02:05:28.829Z,1021.57
2023-02-15T02:06:28.816Z,1021.54
2023-02-15T02:07:28.819Z,1021.57
2023-02-15T02:08:28.797Z,1021.58
2023-02-15T02:09:28.785Z,1021.52
2023-02-15T02:10:28.771Z,1021.50
2023-02-15T02:11:28.760Z,1021.52
2023-02-15T02:12:28.762Z,1021.49
2023-02-15T02:13:28.745Z,1021.56
2023-02-15T02:14:28.729Z,1021.50
2023-02-15T02:15:28.720Z,1021.45
2023-02-15T02:16:28.708Z,1021.55
2023-02-15T02:17:28.695Z,1021.52
2023-02-15T02:18:28.686Z,1021.51
2023-02-15T02:19:28.671Z,1021.47
2023-02-15T02:20:28.680Z,1021.43
2023-02-15T02:21:28.657Z,1021.42
2023-02-15T02:22:28.629Z,1021.48
2023-02-15T02:23:28.629Z,1021.41
2023-02-15T02:24:28.616Z,1021.42
2023-02-15T02:25:28.612Z,1021.38
2023-02-15T02:26:28.598Z,1021.34
2023-02-15T02:27:28.582Z,1021.42
2023-02-15T02:28:28.576Z,1021.36
2023-02-15T02:29:28.550Z,1021.31
2023-02-15T02:30:28.624Z,1021.36
2023-02-15T02:31:28.640Z,1021.38
2023-02-15T02:32:28.522Z,1021.36
2023-02-15T02:33:28.514Z,1021.31
2023-02-15T02:34:28.524Z,1021.29
2023-02-15T02:35:28.503Z,1021.29
2023-02-15T02:36:28.492Z,1021.26
2023-02-15T02:37:28.468Z,1021.25
2023-02-15T02:38:28.466Z,1021.26
2023-02-15T02:39:28.448Z,1021.26
2023-02-15T02:40:28.439Z,1021.28
2023-02-15T02:41:28.420Z,1021.23
2023-02-15T02:42:28.417Z,1021.27
2023-02-15T02:43:28.415Z,1021.28
2023-02-15T02:44:28.388Z,1021.29
2023-02-15T02:45:28.381Z,1021.24
2023-02-15T02:46:28.425Z,1021.26
2023-02-15T02:47:28.364Z,1021.25
2023-02-15T02:48:28.358Z,1021.26
2023-02-15T02:49:28.335Z,1021.26
2023-02-15T02:50:28.336Z,1021.20
2023-02-15T02:51:28.318Z,1021.21
2023-02-15T02:52:28.298Z,1021.23
2023-02-15T02:53:28.287Z,1021.17
2023-02-15T02:54:28.295Z,1021.20
2023-02-15T02:55:28.284Z,1021.11
2023-02-15T02:56:28.254Z,1021.19
2023-02-15T02:57:28.240Z,1021.17
2023-02-15T02:58:28.233Z,1021.11
2023-02-15T02:59:28.231Z,1021.11
2023-02-15T03:00:28.232Z,1021.03
2023-02-15T03:01:28.272Z,1021.02
2023-02-15T03:02:28.225Z,1021.02
2023-02-15T03:03:28.184Z,1020.96
2023-02-15T03:04:28.169Z,1020.99
2023-02-15T03:05:28.156Z,1020.97
2023-02-15T03:06:28.162Z,1020.97
2023-02-15T03:07:28.150Z,1020.98
2023-02-15T03:08:28.128Z,1020.95
2023-02-15T03:09:28.114Z,1020.95
2023-02-15T03:10:28.111Z,1020.94
2023-02-15T03:11:28.100Z,1020.95
2023-02-15T03:12:28.106Z,1020.95
2023-02-15T03:13:28.072Z,1020.94
2023-02-15T03:14:28.060Z,1020.95
2023-02-15T03:15:28.046Z,1020.96
2023-02-15T03:16:28.128Z,1020.95
2023-02-15T03:17:28.021Z,1020.91
2023-02-15T03:18:28.018Z,1020.89
2023-02-15T03:19:28.003Z,1020.87
2023-02-15T03:20:27.985Z,1020.83
2023-02-15T03:21:27.977Z,1020.83
2023-02-15T03:22:27.971Z,1020.78
2023-02-15T03:23:27.958Z,1020.76
2023-02-15T03:24:27.953Z,1020.74
2023-02-15T03:25:27.948Z,1020.76
2023-02-15T03:26:27.922Z,1020.71
2023-02-15T03:27:27.911Z,1020.68
2023-02-15T03:28:27.903Z,1020.68
2023-02-15T03:29:27.899Z,1020.65
2023-02-15T03:30:27.932Z,1020.67
2023-02-15T03:31:27.994Z,1020.67
2023-02-15T03:32:27.857Z,1020.67
2023-02-15T03:33:27.844Z,1020.68
2023-02-15T03:34:27.832Z,1020.63
2023-02-15T03:35:27.833Z,1020.61
2023-02-15T03:36:27.827Z,1020.63
2023-02-15T03:37:27.822Z,1020.61
2023-02-15T03:38:27.790Z,1020.65
2023-02-15T03:39:27.780Z,1020.61
2023-02-15T03:40:27.762Z,1020.67
2023-02-15T03:41:27.761Z,1020.59
2023-02-15T03:42:27.746Z,1020.62
2023-02-15T03:43:27.737Z,1020.65
2023-02-15T03:44:27.722Z,1020.70
2023-02-15T03:45:27.713Z,1020.73
2023-02-15T03:46:27.767Z,1020.66
2023-02-15T03:47:27.696Z,1020.69
2023-02-15T03:48:27.676Z,1020.76
2023-02-15T03:49:27.670Z,1020.76
2023-02-15T03:50:27.660Z,1020.74
2023-02-15T03:51:27.654Z,1020.72
2023-02-15T03:52:27.637Z,1020.70
2023-02-15T03:53:27.622Z,1020.70
2023-02-15T03:54:27.611Z,1020.68
2023-02-15T03:55:27.599Z,1020.71
2023-02-15T03:56:27.588Z,1020.67
2023-02-15T03:57:27.574Z,1020.62
2023-02-15T03:58:27.565Z,1020.65
2023-02-15T03:59:27.569Z,1020.65
2023-02-15T04:00:27.542Z,1020.65
2023-02-15T04:01:27.551Z,1020.64
2023-02-15T04:02:27.518Z,1020.65
2023-02-15T04:03:27.514Z,1020.63
2023-02-15T04:04:27.488Z,1020.62
2023-02-15T04:05:27.482Z,1020.60
2023-02-15T04:06:27.480Z,1020.63
2023-02-15T04:07:27.454Z,1020.59
2023-02-15T04:08:27.446Z,1020.59
2023-02-15T04:09:27.434Z,1020.63
2023-02-15T04:10:27.439Z,1020.56
2023-02-15T04:11:27.412Z,1020.58
2023-02-15T04:12:27.404Z,1020.61
2023-02-15T04:13:27.396Z,1020.64
2023-02-15T04:14:27.381Z,1020.67
2023-02-15T04:15:27.360Z,1020.64
2023-02-15T04:16:29.287Z,1020.65
2023-02-15T04:17:27.346Z,1020.63
2023-02-15T04:18:27.341Z,1020.61
2023-02-15T04:19:27.324Z,1020.58
2023-02-15T04:20:27.304Z,1020.56
2023-02-15T04:21:27.303Z,1020.57
2023-02-15T04:22:27.286Z,1020.58
2023-02-15T04:23:27.278Z,1020.55
2023-02-15T04:24:27.261Z,1020.58
2023-02-15T04:25:27.258Z,1020.58
2023-02-15T04:26:27.245Z,1020.57
2023-02-15T04:27:27.237Z,1020.49
2023-02-15T04:28:27.214Z,1020.49
2023-02-15T04:29:27.203Z,1020.51
2023-02-15T04:30:27.211Z,1020.49
2023-02-15T04:31:27.260Z,1020.52
2023-02-15T04:32:27.162Z,1020.55
2023-02-15T04:33:27.155Z,1020.53
2023-02-15T04:34:27.140Z,1020.53
2023-02-15T04:35:27.134Z,1020.59
2023-02-15T04:36:27.125Z,1020.60
2023-02-15T04:37:27.123Z,1020.52
2023-02-15T04:38:27.097Z,1020.59
2023-02-15T04:39:27.090Z,1020.60
2023-02-15T04:40:27.074Z,1020.57
2023-02-15T04:41:27.062Z,1020.56
2023-02-15T04:42:27.050Z,1020.56
2023-02-15T04:43:27.031Z,1020.55
2023-02-15T04:44:27.039Z,1020.49
2023-02-15T04:45:27.017Z,1020.51
2023-02-15T04:46:27.010Z,1020.50
2023-02-15T04:47:26.992Z,1020.49
2023-02-15T04:48:26.980Z,1020.51
2023-02-15T04:49:26.979Z,1020.53
2023-02-15T04:50:26.961Z,1020.52
2023-02-15T04:51:26.945Z,1020.54
2023-02-15T04:52:26.944Z,1020.55
2023-02-15T04:53:26.921Z,1020.53
2023-02-15T04:54:26.918Z,1020.57
2023-02-15T04:55:26.899Z,1020.55
2023-02-15T04:56:26.905Z,1020.52
2023-02-15T04:57:26.881Z,1020.53
2023-02-15T04:58:26.863Z,1020.55
2023-02-15T04:59:26.855Z,1020.50
2023-02-15T05:00:26.853Z,1020.53
2023-02-15T05:01:26.852Z,1020.56
2023-02-15T05:02:26.817Z,1020.54
2023-02-15T05:03:26.807Z,1020.53
2023-02-15T05:04:26.804Z,1020.52
2023-02-15T05:05:26.785Z,1020.55
2023-02-15T05:06:26.766Z,1020.58
2023-02-15T05:07:26.759Z,1020.57
2023-02-15T05:08:26.753Z,1020.58
2023-02-15T05:09:26.749Z,1020.55
2023-02-15T05:10:26.727Z,1020.55
2023-02-15T05:11:26.716Z,1020.56
2023-02-15T05:12:26.711Z,1020.55
2023-02-15T05:13:26.690Z,1020.54
2023-02-15T05:14:26.688Z,1020.60
2023-02-15T05:15:26.673Z,1020.57
2023-02-15T05:16:26.727Z,1020.54
2023-02-15T05:17:26.649Z,1020.53
2023-02-15T05:18:26.641Z,1020.50
2023-02-15T05:19:26.625Z,1020.51
2023-02-15T05:20:26.616Z,1020.46
2023-02-15T05:21:26.596Z,1020.52
2023-02-15T05:22:26.595Z,1020.45
2023-02-15T05:23:26.584Z,1020.53
2023-02-15T05:24:26.565Z,1020.49
2023-02-15T05:25:26.561Z,1020.47
2023-02-15T05:26:26.543Z,1020.47
2023-02-15T05:27:26.550Z,1020.46
2023-02-15T05:28:26.520Z,1020.46
2023-02-15T05:29:26.512Z,1020.48
2023-02-15T05:30:26.638Z,1020.39
2023-02-15T05:31:26.886Z,1020.31
2023-02-15T05:32:26.602Z,1020.36
2023-02-15T05:33:26.466Z,1020.33
2023-02-15T05:34:26.456Z,1020.35
2023-02-15T05:35:26.448Z,1020.28
2023-02-15T05:36:26.435Z,1020.32
2023-02-15T05:37:26.432Z,1020.32
2023-02-15T05:38:26.414Z,1020.29
2023-02-15T05:39:26.396Z,1020.27
2023-02-15T05:40:26.385Z,1020.33
2023-02-15T05:41:26.379Z,1020.32
2023-02-15T05:42:26.388Z,1020.34
2023-02-15T05:43:26.357Z,1020.36
2023-02-15T05:44:26.339Z,1020.39
2023-02-15T05:45:26.327Z,1020.41
2023-02-15T05:46:26.433Z,1020.45
2023-02-15T05:47:26.310Z,1020.43
2023-02-15T05:48:26.308Z,1020.44
2023-02-15T05:49:26.287Z,1020.44
2023-02-15T05:50:26.269Z,1020.41
2023-02-15T05:51:26.263Z,1020.43
2023-02-15T05:52:26.248Z,1020.39
2023-02-15T05:53:26.235Z,1020.38
2023-02-15T05:54:26.221Z,1020.39
2023-02-15T05:55:26.223Z,1020.37
2023-02-15T05:56:26.204Z,1020.41
2023-02-15T05:57:26.200Z,1020.40
2023-02-15T05:58:26.180Z,1020.37
2023-02-15T05:59:26.182Z,1020.37
2023-02-15T06:00:26.164Z,1020.39
2023-02-15T06:01:26.142Z,1020.45
2023-02-15T06:02:26.185Z,1020.48
2023-02-15T06:03:26.170Z,1020.43
2023-02-15T06:04:26.110Z,1020.46
2023-02-15T06:05:26.096Z,1020.43
2023-02-15T06:06:26.083Z,1020.40
2023-02-15T06:07:26.080Z,1020.46
2023-02-15T06:08:26.061Z,1020.45
2023-02-15T06:09:26.055Z,1020.43
2023-02-15T06:10:26.058Z,1020.42
2023-02-15T06:11:26.027Z,1020.45
2023-02-15T06:12:26.014Z,1020.37
2023-02-15T06:13:26.001Z,1020.47
2023-02-15T06:14:26.009Z,1020.49
2023-02-15T06:15:26.026Z,1020.46
2023-02-15T06:16:25.970Z,1020.49
2023-02-15T06:17:25.955Z,1020.42
2023-02-15T06:18:25.939Z,1020.45
2023-02-15T06:19:25.934Z,1020.43
2023-02-15T06:20:25.920Z,1020.40
2023-02-15T06:21:25.914Z,1020.36
2023-02-15T06:22:25.892Z,1020.31
2023-02-15T06:23:25.882Z,1020.36
2023-02-15T06:24:25.868Z,1020.36
2023-02-15T06:25:25.862Z,1020.38
2023-02-15T06:26:25.855Z,1020.33
2023-02-15T06:27:25.841Z,1020.32
2023-02-15T06:28:25.840Z,1020.34
2023-02-15T06:29:25.814Z,1020.36
2023-02-15T06:30:25.858Z,1020.38
2023-02-15T06:31:25.887Z,1020.36
2023-02-15T06:32:25.773Z,1020.38
2023-02-15T06:33:25.761Z,1020.40
2023-02-15T06:34:25.748Z,1020.47
2023-02-15T06:35:25.736Z,1020.49
2023-02-15T06:36:25.727Z,1020.50
2023-02-15T06:37:25.713Z,1020.50
2023-02-15T06:38:25.701Z,1020.53
2023-02-15T06:39:25.690Z,1020.56
2023-02-15T06:40:25.673Z,1020.53
2023-02-15T06:41:25.665Z,1020.54
2023-02-15T06:42:25.656Z,1020.47
2023-02-15T06:43:25.649Z,1020.51
2023-02-15T06:44:25.635Z,1020.55
2023-02-15T06:45:25.624Z,1020.54
2023-02-15T06:46:25.616Z,1020.52
2023-02-15T06:47:25.591Z,1020.56
2023-02-15T06:48:25.579Z,1020.56
2023-02-15T06:49:25.573Z,1020.60
2023-02-15T06:50:25.556Z,1020.60
2023-02-15T06:51:25.550Z,1020.61
2023-02-15T06:52:25.531Z,1020.61
2023-02-15T06:53:25.525Z,1020.57
2023-02-15T06:54:25.510Z,1020.55
2023-02-15T06:55:25.502Z,1020.56
2023-02-15T06:56:25.489Z,1020.51
2023-02-15T06:57:25.480Z,1020.48
2023-02-15T06:58:25.457Z,1020.52
2023-02-15T06:59:25.453Z,1020.49
2023-02-15T07:00:25.437Z,1020.45
2023-02-15T07:01:25.443Z,1020.46
2023-02-15T07:02:25.412Z,1020.46
2023-02-15T07:03:25.407Z,1020.50
2023-02-15T07:04:25.411Z,1020.50
2023-02-15T07:05:25.384Z,1020.51
2023-02-15T07:06:25.360Z,1020.51
2023-02-15T07:07:25.352Z,1020.50
2023-02-15T07:08:25.361Z,1020.57
2023-02-15T07:09:25.327Z,1020.54
2023-02-15T07:10:25.315Z,1020.45
2023-02-15T07:11:25.300Z,1020.47
2023-02-15T07:12:25.284Z,1020.46
2023-02-15T07:13:25.276Z,1020.44
2023-02-15T07:14:26.377Z,1020.47
2023-02-15T07:15:25.258Z,1020.42
2023-02-15T07:16:25.344Z,1020.41
2023-02-15T07:17:35.613Z,1020.44
2023-02-15T07:18:25.225Z,1020.40
2023-02-15T07:19:25.215Z,1020.42
2023-02-15T07:20:25.194Z,1020.43
2023-02-15T07:21:25.187Z,1020.45
2023-02-15T07:22:25.175Z,1020.42
2023-02-15T07:23:25.161Z,1020.39
2023-02-15T07:24:25.158Z,1020.44
2023-02-15T07:25:25.150Z,1020.45
2023-02-15T07:26:25.116Z,1020.43
2023-02-15T07:27:25.108Z,1020.43
2023-02-15T07:28:25.103Z,1020.49
2023-02-15T07:29:25.082Z,1020.46
2023-02-15T07:30:25.127Z,1020.46
2023-02-15T07:31:25.061Z,1020.41
2023-02-15T07:32:25.073Z,1020.38
2023-02-15T07:33:25.040Z,1020.40
2023-02-15T07:34:25.016Z,1020.36
2023-02-15T07:35:25.020Z,1020.33
2023-02-15T07:36:24.999Z,1020.36
2023-02-15T07:37:24.987Z,1020.31
2023-02-15T07:38:24.976Z,1020.32
2023-02-15T07:39:24.958Z,1020.32
2023-02-15T07:40:24.966Z,1020.30
2023-02-15T07:41:24.943Z,1020.30
2023-02-15T07:42:24.924Z,1020.32
2023-02-15T07:43:24.921Z,1020.32
2023-02-15T07:44:24.909Z,1020.28
2023-02-15T07:45:24.894Z,1020.18
2023-02-15T07:46:24.902Z,1020.20
2023-02-15T07:47:24.872Z,1020.16
2023-02-15T07:48:25.059Z,1020.14
2023-02-15T07:49:24.846Z,1020.12
2023-02-15T07:50:24.835Z,1020.10
2023-02-15T07:51:24.818Z,1020.08
2023-02-15T07:52:24.809Z,1020.07
2023-02-15T07:53:24.797Z,1019.99
2023-02-15T07:54:24.793Z,1020.05
2023-02-15T07:55:24.783Z,1020.02
2023-02-15T07:56:24.768Z,1020.01
2023-02-15T07:57:24.754Z,1020.01
2023-02-15T07:58:24.732Z,1020.04
2023-02-15T07:59:24.727Z,1020.00
2023-02-15T08:00:24.716Z,1020.01
2023-02-15T08:01:24.705Z,1020.01
2023-02-15T08:02:24.698Z,1020.07
2023-02-15T08:03:24.724Z,1020.01
2023-02-15T08:04:24.682Z,1020.01
2023-02-15T08:05:24.647Z,1020.02
2023-02-15T08:06:24.646Z,1019.98
2023-02-15T08:07:24.631Z,1019.99
2023-02-15T08:08:24.627Z,1019.99
2023-02-15T08:09:24.606Z,1019.99
2023-02-15T08:10:24.596Z,1019.98
2023-02-15T08:11:24.586Z,1020.00
2023-02-15T08:12:24.573Z,1019.95
2023-02-15T08:13:24.566Z,1019.95
2023-02-15T08:14:24.560Z,1019.94
2023-02-15T08:15:24.540Z,1020.00
2023-02-15T08:16:24.577Z,1019.98
2023-02-15T08:17:24.518Z,1019.96
2023-02-15T08:18:24.507Z,1019.93
2023-02-15T08:19:24.523Z,1019.94
2023-02-15T08:20:24.481Z,1019.91
2023-02-15T08:21:25.036Z,1019.92
2023-02-15T08:22:24.456Z,1019.91
2023-02-15T08:23:24.448Z,1019.89
2023-02-15T08:24:24.453Z,1019.93
2023-02-15T08:25:24.427Z,1019.93
2023-02-15T08:26:24.414Z,1019.95
2023-02-15T08:27:24.404Z,1019.93
2023-02-15T08:28:24.396Z,1019.93
2023-02-15T08:29:24.385Z,1019.90
2023-02-15T08:30:24.495Z,1019.93
2023-02-15T08:31:24.511Z,1019.88
2023-02-15T08:32:24.351Z,1019.89
2023-02-15T08:33:24.334Z,1019.92
2023-02-15T08:34:24.321Z,1019.88
2023-02-15T08:35:24.328Z,1019.90
2023-02-15T08:36:24.335Z,1019.88
2023-02-15T08:37:24.314Z,1019.89
2023-02-15T08:38:24.286Z,1019.87
2023-02-15T08:39:24.268Z,1019.87
2023-02-15T08:40:24.253Z,1019.86
2023-02-15T08:41:24.247Z,1019.89
2023-02-15T08:42:24.241Z,1019.86
2023-02-15T08:43:24.221Z,1019.87
2023-02-15T08:44:24.212Z,1019.87
2023-02-15T08:45:24.200Z,1019.90
2023-02-15T08:46:24.188Z,1019.89
2023-02-15T08:47:24.178Z,1019.88
2023-02-15T08:48:24.166Z,1019.91
2023-02-15T08:49:24.152Z,1019.91
2023-02-15T08:50:24.155Z,1019.89
2023-02-15T08:51:24.131Z,1019.95
2023-02-15T08:52:24.126Z,1019.90
2023-02-15T08:53:24.116Z,1019.84
2023-02-15T08:54:24.122Z,1019.86
2023-02-15T08:55:24.085Z,1019.84
2023-02-15T08:56:24.079Z,1019.81
2023-02-15T08:57:24.064Z,1019.80
2023-02-15T08:58:24.051Z,1019.80
2023-02-15T08:59:24.047Z,1019.88
2023-02-15T09:00:24.029Z,1019.85
2023-02-15T09:01:24.051Z,1019.82
2023-02-15T09:02:24.040Z,1019.79
2023-02-15T09:03:23.998Z,1019.78
2023-02-15T09:04:23.983Z,1019.74
2023-02-15T09:05:23.977Z,1019.70
2023-02-15T09:06:23.965Z,1019.70
2023-02-15T09:07:23.953Z,1019.61
2023-02-15T09:08:23.972Z,1019.60
2023-02-15T09:09:23.929Z,1019.62
2023-02-15T09:10:23.920Z,1019.64
2023-02-15T09:11:23.908Z,1019.62
2023-02-15T09:12:23.892Z,1019.64
2023-02-15T09:13:23.882Z,1019.59
2023-02-15T09:14:23.871Z,1019.62
2023-02-15T09:15:23.860Z,1019.65
2023-02-15T09:16:23.882Z,1019.66
2023-02-15T09:17:23.854Z,1019.65
2023-02-15T09:18:23.828Z,1019.66
2023-02-15T09:19:23.834Z,1019.67
2023-02-15T09:20:23.808Z,1019.67
2023-02-15T09:21:23.789Z,1019.70
2023-02-15T09:22:23.784Z,1019.69
2023-02-15T09:23:27.371Z,1019.70
2023-02-15T09:24:23.866Z,1019.67
2023-02-15T09:25:23.761Z,1019.67
2023-02-15T09:26:23.748Z,1019.69
2023-02-15T09:27:23.733Z,1019.72
2023-02-15T09:28:23.720Z,1019.68
2023-02-15T09:29:23.768Z,1019.67
2023-02-15T09:30:23.825Z,1019.69
2023-02-15T09:31:23.778Z,1019.70
2023-02-15T09:32:23.674Z,1019.75
2023-02-15T09:33:23.666Z,1019.71
2023-02-15T09:34:23.655Z,1019.72
2023-02-15T09:35:23.640Z,1019.70
2023-02-15T09:36:23.633Z,1019.72
2023-02-15T09:37:23.625Z,1019.75
2023-02-15T09:38:23.614Z,1019.76
2023-02-15T09:39:23.618Z,1019.77
2023-02-15T09:40:23.600Z,1019.78
2023-02-15T09:41:23.582Z,1019.77
2023-02-15T09:42:23.568Z,1019.83
2023-02-15T09:43:23.558Z,1019.82
2023-02-15T09:44:23.552Z,1019.88
2023-02-15T09:45:23.547Z,1019.80
2023-02-15T09:46:23.567Z,1019.85
2023-02-15T09:47:23.517Z,1019.81
2023-02-15T09:48:23.508Z,1019.91
2023-02-15T09:49:23.515Z,1019.88
2023-02-15T09:50:23.546Z,1019.90
2023-02-15T09:51:23.474Z,1019.91
2023-02-15T09:52:23.469Z,1019.89
2023-02-15T09:53:23.457Z,1019.89
2023-02-15T09:54:23.459Z,1019.88
2023-02-15T09:55:23.432Z,1019.87
2023-02-15T09:56:23.426Z,1019.87
2023-02-15T09:57:23.424Z,1019.83
2023-02-15T09:58:23.409Z,1019.86
2023-02-15T09:59:23.400Z,1019.88
2023-02-15T10:00:23.465Z,1019.89
2023-02-15T10:01:23.411Z,1019.86
2023-02-15T10:02:23.388Z,1019.85
2023-02-15T10:03:23.389Z,1019.84
2023-02-15T10:04:23.401Z,1019.90
2023-02-15T10:05:23.354Z,1019.89
2023-02-15T10:06:23.336Z,1019.86
2023-02-15T10:07:23.335Z,1019.86
2023-02-15T10:08:23.324Z,1019.88
2023-02-15T10:09:23.333Z,1019.89
2023-02-15T10:10:23.339Z,1019.89
2023-02-15T10:11:23.319Z,1019.96
2023-02-15T10:12:23.282Z,1019.91
2023-02-15T10:13:23.273Z,1019.98
2023-02-15T10:14:23.286Z,1019.97
2023-02-15T10:15:23.261Z,1019.99
2023-02-15T10:16:23.257Z,1020.00
2023-02-15T10:17:23.248Z,1020.03
2023-02-15T10:18:23.246Z,1019.95
2023-02-15T10:19:23.231Z,1019.97
2023-02-15T10:20:23.224Z,1019.93
2023-02-15T10:21:23.223Z,1019.98
2023-02-15T10:22:23.234Z,1019.94
2023-02-15T10:23:23.204Z,1019.93
2023-02-15T10:24:23.198Z,1019.98
2023-02-15T10:25:23.184Z,1019.96
2023-02-15T10:26:23.186Z,1019.97
2023-02-15T10:27:23.177Z,1019.97
2023-02-15T10:28:23.188Z,1019.95
2023-02-15T10:29:23.167Z,1019.94
2023-02-15T10:30:23.285Z,1019.95
2023-02-15T10:31:23.236Z,1019.94
2023-02-15T10:32:23.177Z,1019.96
2023-02-15T10:33:23.150Z,1019.95
2023-02-15T10:34:23.148Z,1019.90
2023-02-15T10:35:23.144Z,1019.92
2023-02-15T10:36:23.131Z,1019.88
2023-02-15T10:37:23.137Z,1019.88
2023-02-15T10:38:23.122Z,1019.86
2023-02-15T10:39:23.111Z,1019.91
2023-02-15T10:40:23.117Z,1019.87
2023-02-15T10:41:23.115Z,1019.87
2023-02-15T10:42:23.113Z,1019.89
2023-02-15T10:43:23.108Z,1019.87
2023-02-15T10:44:23.100Z,1019.83
2023-02-15T10:45:23.087Z,1019.85
2023-02-15T10:46:23.126Z,1019.86
2023-02-15T10:47:23.088Z,1019.88
2023-02-15T10:48:23.086Z,1019.87
2023-02-15T10:49:23.074Z,1019.89
2023-02-15T10:50:23.077Z,1019.86
2023-02-15T10:51:23.079Z,1019.86
2023-02-15T10:52:24.378Z,1019.90
2023-02-15T10:53:23.055Z,1019.95
2023-02-15T10:54:23.068Z,1019.91
2023-02-15T10:55:23.054Z,1019.88
2023-02-15T10:56:23.057Z,1019.85
2023-02-15T10:57:23.139Z,1019.83
2023-02-15T10:58:23.042Z,1019.86
2023-02-15T10:59:23.043Z,1019.82
2023-02-15T11:00:23.039Z,1019.82
2023-02-15T11:01:23.094Z,1019.77
2023-02-15T11:02:23.032Z,1019.81
2023-02-15T11:03:23.030Z,1019.77
2023-02-15T11:04:23.038Z,1019.72
2023-02-15T11:05:23.063Z,1019.73
2023-02-15T11:06:23.030Z,1019.74
2023-02-15T11:07:23.028Z,1019.69
2023-02-15T11:08:23.015Z,1019.66
2023-02-15T11:09:23.016Z,1019.65
2023-02-15T11:10:23.005Z,1019.67
2023-02-15T11:11:23.011Z,1019.70
2023-02-15T11:12:23.006Z,1019.68
2023-02-15T11:13:23.005Z,1019.66
2023-02-15T11:14:23.003Z,1019.65
2023-02-15T11:15:23.004Z,1019.65
2023-02-15T11:16:23.043Z,1019.63
2023-02-15T11:17:22.994Z,1019.63
2023-02-15T11:18:22.987Z,1019.67
2023-02-15T11:19:22.981Z,1019.71
2023-02-15T11:20:22.995Z,1019.76
2023-02-15T11:21:22.968Z,1019.86
2023-02-15T11:22:22.968Z,1019.84
2023-02-15T11:23:22.976Z,1019.86
2023-02-15T11:24:22.965Z,1019.85
2023-02-15T11:25:22.961Z,1019.88
2023-02-15T11:26:22.971Z,1019.86
2023-02-15T11:27:23.026Z,1019.80
2023-02-15T11:28:22.967Z,1019.76
2023-02-15T11:29:22.967Z,1019.65
2023-02-15T11:30:23.013Z,1019.61
2023-02-15T11:31:23.053Z,1019.59
2023-02-15T11:32:22.942Z,1019.54
2023-02-15T11:33:22.944Z,1019.47
2023-02-15T11:34:22.946Z,1019.45
2023-02-15T11:35:22.937Z,1019.46
2023-02-15T11:36:22.925Z,1019.47
2023-02-15T11:37:22.936Z,1019.42
2023-02-15T11:38:22.928Z,1019.42
2023-02-15T11:39:22.929Z,1019.39
2023-02-15T11:40:22.929Z,1019.40
2023-02-15T11:41:22.931Z,1019.36
2023-02-15T11:42:22.918Z,1019.33
2023-02-15T11:43:22.922Z,1019.34
2023-02-15T11:44:22.905Z,1019.32
2023-02-15T11:45:22.909Z,1019.31
2023-02-15T11:46:22.966Z,1019.31
2023-02-15T11:47:22.902Z,1019.25
2023-02-15T11:48:22.905Z,1019.32
2023-02-15T11:49:22.905Z,1019.26
2023-02-15T11:50:22.906Z,1019.26
2023-02-15T11:51:24.107Z,1019.23
2023-02-15T11:52:22.888Z,1019.24
2023-02-15T11:53:22.889Z,1019.25
2023-02-15T11:54:22.885Z,1019.24
2023-02-15T11:55:22.888Z,1019.24
2023-02-15T11:56:22.890Z,1019.25
2023-02-15T11:57:23.230Z,1019.29
2023-02-15T11:58:22.882Z,1019.27
2023-02-15T11:59:22.876Z,1019.23
2023-02-15T12:00:22.882Z,1019.18
2023-02-15T12:01:22.871Z,1019.18
2023-02-15T12:02:22.979Z,1019.13
2023-02-15T12:03:23.590Z,1019.15
2023-02-15T12:04:22.985Z,1019.21
2023-02-15T12:05:22.857Z,1019.16